Time;durP1;ratioP1;P1;durP2;ratioP2;P2;SDS_P1;SDS_P2;PMS_P1;PMS_P2;Temp;Humidity;BMP_temperature;BMP_pressure;BME280_temperature;BME280_humidity;BME280_pressure;Samples;Min_cycle;Max_cycle;Signal;HPM_P1;HPM_P2
2022/10/12 00:02:23;;;;;;;9.38;8.30;;;8.60;91.90;;;;;;5105048;28;20812;-70
2022/10/12 00:04:50;;;;;;;10.15;8.60;;;8.60;91.90;;;;;;5098373;28;20418;-71
2022/10/12 00:07:18;;;;;;;10.10;9.02;;;8.60;92.20;;;;;;5101162;28;20999;-71
2022/10/12 00:09:45;;;;;;;10.88;8.60;;;8.50;92.20;;;;;;5102570;28;20424;-70
2022/10/12 00:12:12;;;;;;;10.30;8.10;;;8.50;92.10;;;;;;5107081;28;20420;-72
2022/10/12 00:14:39;;;;;;;9.57;8.30;;;8.50;92.10;;;;;;5107220;28;20412;-72
2022/10/12 00:17:05;;;;;;;8.43;7.53;;;8.40;92.40;;;;;;5106605;28;20788;-71
2022/10/12 00:19:32;;;;;;;12.25;8.32;;;8.40;92.00;;;;;;5106503;28;20428;-70
2022/10/12 00:21:59;;;;;;;8.70;7.80;;;8.40;92.00;;;;;;5105390;28;20424;-71
2022/10/12 00:24:27;;;;;;;11.00;8.30;;;8.30;92.20;;;;;;5105640;28;20450;-71
2022/10/12 00:26:54;;;;;;;10.52;8.75;;;8.30;92.30;;;;;;5106406;28;20418;-70
2022/10/12 00:29:21;;;;;;;9.07;7.55;;;8.20;92.30;;;;;;5106544;28;20453;-70
2022/10/12 00:31:48;;;;;;;10.70;8.18;;;8.20;92.20;;;;;;5106720;28;20804;-71
2022/10/12 00:34:14;;;;;;;10.20;7.75;;;8.20;92.30;;;;;;5106550;28;20408;-71
2022/10/12 00:36:42;;;;;;;8.93;7.20;;;8.10;92.30;;;;;;5102717;28;20431;-72
2022/10/12 00:39:10;;;;;;;8.23;7.43;;;8.20;92.60;;;;;;5099328;28;20432;-71
2022/10/12 00:41:40;;;;;;;8.48;7.63;;;8.20;92.50;;;;;;5104503;28;20428;-70
2022/10/12 00:44:34;;;;;;;9.20;7.40;;;8.10;92.40;;;;;;5106795;28;20505;-71
2022/10/12 00:47:05;;;;;;;8.53;7.70;;;8.10;92.40;;;;;;5107311;28;20783;-70
2022/10/12 00:49:32;;;;;;;7.80;7.00;;;8.10;92.40;;;;;;5105892;28;20424;-72
2022/10/12 00:52:04;;;;;;;10.52;7.30;;;8.10;92.40;;;;;;5103255;28;20435;-70
2022/10/12 00:54:35;;;;;;;8.73;7.10;;;8.10;92.20;;;;;;5105415;28;20424;-70
2022/10/12 00:57:05;;;;;;;9.02;7.40;;;8.00;92.20;;;;;;5106276;28;20412;-71
2022/10/12 00:59:35;;;;;;;7.80;7.00;;;8.10;92.20;;;;;;5105519;28;20415;-70
2022/10/12 01:02:02;;;;;;;10.45;7.43;;;8.10;92.10;;;;;;5106304;28;20414;-71
2022/10/12 01:04:31;;;;;;;8.80;7.00;;;8.00;91.90;;;;;;5104658;28;20434;-70
2022/10/12 01:06:59;;;;;;;8.90;6.87;;;8.00;92.00;;;;;;5104804;28;20449;-70
2022/10/12 01:09:27;;;;;;;8.98;7.07;;;8.00;91.90;;;;;;5105722;28;20855;-70
2022/10/12 01:11:54;;;;;;;9.50;6.63;;;8.00;91.80;;;;;;5093766;28;20416;-70
2022/10/12 01:14:22;;;;;;;8.73;6.30;;;7.90;91.80;;;;;;5101326;28;20437;-71
2022/10/12 01:16:54;;;;;;;9.70;6.80;;;7.90;91.90;;;;;;5093055;28;20423;-72
2022/10/12 01:19:42;;;;;;;8.93;6.28;;;7.90;92.00;;;;;;5100657;28;20410;-71
2022/10/12 01:22:15;;;;;;;7.15;5.88;;;7.90;92.10;;;;;;5114047;28;20427;-70
2022/10/12 01:24:49;;;;;;;8.20;6.57;;;7.90;92.00;;;;;;5111034;28;20423;-70
2022/10/12 01:27:39;;;;;;;7.22;6.35;;;7.90;92.00;;;;;;5109851;28;20475;-71
2022/10/12 01:30:10;;;;;;;10.05;6.57;;;7.90;92.20;;;;;;5110574;28;20530;-71
2022/10/12 01:32:52;;;;;;;8.52;6.55;;;7.90;92.10;;;;;;5109200;27;20732;-70
2022/10/12 01:35:24;;;;;;;8.23;6.53;;;7.90;92.10;;;;;;5108081;28;20460;-71
2022/10/12 01:38:03;;;;;;;8.32;6.20;;;7.90;92.20;;;;;;5103991;28;20914;-71
2022/10/12 01:40:35;;;;;;;8.20;6.10;;;7.90;92.10;;;;;;5106025;28;20416;-71
2022/10/12 01:43:02;;;;;;;7.50;6.47;;;7.90;91.80;;;;;;5109273;28;20420;-70
2022/10/12 01:45:31;;;;;;;7.38;6.03;;;7.80;91.90;;;;;;5109960;28;20408;-71
2022/10/12 01:47:58;;;;;;;9.02;6.43;;;7.80;91.80;;;;;;5109762;28;20420;-71
2022/10/12 01:50:31;;;;;;;8.03;5.87;;;7.80;91.40;;;;;;5108411;28;20481;-70
2022/10/12 01:53:05;;;;;;;6.97;5.70;;;7.70;91.30;;;;;;5109403;27;20418;-70
2022/10/12 01:55:38;;;;;;;7.80;6.03;;;7.70;91.20;;;;;;5109288;27;20435;-70
2022/10/12 01:58:17;;;;;;;6.33;5.73;;;7.70;91.30;;;;;;5098504;28;20409;-70
2022/10/12 02:00:54;;;;;;;7.95;5.68;;;7.60;91.40;;;;;;5097547;28;20785;-70
2022/10/12 02:03:27;;;;;;;7.53;6.10;;;7.60;91.20;;;;;;5108692;28;20571;-70
2022/10/12 02:05:59;;;;;;;8.50;6.40;;;7.60;91.10;;;;;;5111316;28;20456;-71
2022/10/12 02:08:30;;;;;;;8.05;5.97;;;7.60;91.00;;;;;;5108546;28;20428;-70
2022/10/12 02:11:04;;;;;;;7.53;5.70;;;7.50;91.20;;;;;;5109143;28;20419;-70
2022/10/12 02:13:34;;;;;;;9.80;6.30;;;7.50;91.10;;;;;;5109239;28;20407;-70
2022/10/12 02:16:06;;;;;;;8.45;5.60;;;7.50;91.20;;;;;;5109622;28;20434;-70
2022/10/12 02:18:37;;;;;;;8.95;6.28;;;7.40;91.40;;;;;;5098180;28;20600;-69
2022/10/12 02:21:04;;;;;;;8.13;5.88;;;7.40;91.60;;;;;;5108723;28;20456;-70
2022/10/12 02:23:31;;;;;;;6.88;6.18;;;7.40;91.70;;;;;;5109225;28;20423;-70
2022/10/12 02:25:59;;;;;;;6.25;5.50;;;7.40;91.70;;;;;;5108991;28;20420;-70
2022/10/12 02:28:29;;;;;;;7.80;5.95;;;7.30;91.70;;;;;;5108287;28;20741;-70
2022/10/12 02:31:01;;;;;;;8.13;5.70;;;7.30;91.80;;;;;;5109073;28;20418;-70
2022/10/12 02:33:36;;;;;;;8.68;5.80;;;7.30;92.00;;;;;;5106902;28;20439;-70
2022/10/12 02:36:08;;;;;;;7.55;6.10;;;7.30;92.10;;;;;;5108638;28;20408;-70
2022/10/12 02:38:39;;;;;;;6.57;5.68;;;7.30;92.10;;;;;;5109025;28;20448;-71
2022/10/12 02:41:10;;;;;;;7.28;5.97;;;7.20;92.00;;;;;;5108701;28;20460;-70
2022/10/12 02:43:41;;;;;;;8.23;5.90;;;7.20;92.20;;;;;;5109041;28;20412;-69
2022/10/12 02:46:10;;;;;;;7.07;5.47;;;7.10;92.30;;;;;;5109638;28;20498;-70
2022/10/12 02:48:40;;;;;;;6.60;5.70;;;7.10;92.20;;;;;;5099689;28;21057;-69
2022/10/12 02:51:09;;;;;;;8.03;6.30;;;7.10;92.30;;;;;;5088221;28;20503;-69
2022/10/12 02:53:36;;;;;;;7.70;5.55;;;7.10;92.30;;;;;;5088357;28;20410;-70
2022/10/12 02:56:05;;;;;;;8.10;6.03;;;7.00;92.20;;;;;;5100575;28;20435;-71
2022/10/12 02:58:32;;;;;;;7.65;6.45;;;7.00;92.20;;;;;;5109861;28;20975;-70
2022/10/12 03:00:59;;;;;;;8.93;6.30;;;7.00;92.30;;;;;;5107457;28;20431;-71
2022/10/12 03:03:26;;;;;;;7.53;5.78;;;7.00;92.30;;;;;;5108451;27;20411;-70
2022/10/12 03:05:54;;;;;;;8.70;6.30;;;7.00;92.50;;;;;;5108665;28;20412;-70
2022/10/12 03:08:21;;;;;;;6.90;5.85;;;7.00;92.40;;;;;;5107647;28;20435;-70
2022/10/12 03:10:48;;;;;;;6.90;5.82;;;7.00;92.40;;;;;;5108260;28;20416;-70
2022/10/12 03:13:15;;;;;;;8.57;5.90;;;7.00;92.60;;;;;;5108602;28;20916;-70
2022/10/12 03:15:41;;;;;;;9.93;5.90;;;7.00;92.70;;;;;;5108551;28;20423;-71
2022/10/12 03:18:08;;;;;;;7.20;5.50;;;7.00;92.50;;;;;;5094365;27;20425;-70
2022/10/12 03:20:35;;;;;;;8.02;5.97;;;6.90;92.50;;;;;;5087986;28;20413;-70
2022/10/12 03:23:03;;;;;;;8.70;5.90;;;6.90;92.60;;;;;;5088126;28;20417;-70
2022/10/12 03:25:30;;;;;;;8.15;5.97;;;6.90;92.70;;;;;;5091972;28;20995;-69
2022/10/12 03:27:57;;;;;;;7.23;5.70;;;6.80;92.80;;;;;;5102819;28;20424;-69
2022/10/12 03:30:24;;;;;;;8.07;6.13;;;6.90;92.90;;;;;;5104004;28;21008;-72
2022/10/12 03:32:50;;;;;;;7.47;5.90;;;6.90;92.70;;;;;;5104604;28;20955;-71
2022/10/12 03:35:17;;;;;;;7.05;5.80;;;6.90;92.60;;;;;;5106037;28;20429;-71
2022/10/12 03:37:44;;;;;;;7.90;5.83;;;6.90;92.70;;;;;;5099027;27;20453;-70
2022/10/12 03:40:13;;;;;;;8.07;6.30;;;6.90;92.60;;;;;;5097681;28;20435;-71
2022/10/12 03:42:39;;;;;;;7.75;6.20;;;6.80;92.80;;;;;;5106413;28;20417;-71
2022/10/12 03:45:08;;;;;;;6.07;5.47;;;6.80;93.00;;;;;;5107202;28;20560;-70
2022/10/12 03:47:36;;;;;;;8.10;6.10;;;6.80;92.40;;;;;;5105732;28;20512;-69
2022/10/12 03:50:03;;;;;;;6.43;5.80;;;6.80;92.30;;;;;;5106320;28;20450;-71
2022/10/12 03:52:30;;;;;;;7.25;5.97;;;6.80;92.40;;;;;;5105698;28;20603;-70
2022/10/12 03:54:57;;;;;;;7.75;6.20;;;6.80;92.20;;;;;;5106641;28;20815;-71
2022/10/12 03:57:25;;;;;;;8.93;5.88;;;6.70;92.40;;;;;;5099831;28;20409;-71
2022/10/12 03:59:52;;;;;;;7.90;5.90;;;6.70;92.40;;;;;;5087306;28;20410;-71
2022/10/12 04:02:21;;;;;;;8.93;6.20;;;6.70;92.40;;;;;;5087055;28;20531;-69
2022/10/12 04:04:47;;;;;;;7.13;5.90;;;6.70;92.60;;;;;;5104389;28;20420;-71
2022/10/12 04:07:14;;;;;;;7.13;5.90;;;6.60;92.90;;;;;;5100697;28;20425;-71
2022/10/12 04:09:41;;;;;;;7.68;6.22;;;6.70;92.60;;;;;;5091265;28;20432;-69
2022/10/12 04:12:08;;;;;;;7.85;6.10;;;6.60;92.70;;;;;;5092664;27;20451;-73
2022/10/12 04:14:36;;;;;;;8.35;6.28;;;6.60;92.60;;;;;;5079707;28;21009;-72
2022/10/12 04:17:03;;;;;;;7.22;5.90;;;6.60;92.70;;;;;;5097702;27;20426;-71
2022/10/12 04:19:30;;;;;;;7.03;5.90;;;6.60;92.70;;;;;;5097000;28;20401;-71
2022/10/12 04:21:57;;;;;;;8.13;6.30;;;6.60;92.70;;;;;;5108430;27;20432;-72
2022/10/12 04:24:24;;;;;;;7.95;6.13;;;6.50;92.70;;;;;;5127874;27;20503;-73
2022/10/12 04:26:50;;;;;;;6.93;5.47;;;6.50;92.80;;;;;;5115546;28;20412;-71
2022/10/12 04:29:17;;;;;;;7.22;5.70;;;6.60;92.90;;;;;;5096450;28;20742;-71
2022/10/12 04:31:45;;;;;;;7.53;5.60;;;6.60;92.80;;;;;;5106500;28;20530;-71
2022/10/12 04:34:12;;;;;;;8.18;6.00;;;6.50;92.80;;;;;;5094772;28;20428;-71
2022/10/12 04:36:39;;;;;;;11.38;6.15;;;6.50;92.70;;;;;;5099287;28;21063;-71
2022/10/12 04:39:06;;;;;;;7.40;5.60;;;6.50;92.80;;;;;;5097485;28;20408;-71
2022/10/12 04:41:33;;;;;;;6.10;5.50;;;6.40;92.60;;;;;;5118565;27;20999;-70
2022/10/12 04:44:00;;;;;;;6.72;5.80;;;6.40;92.60;;;;;;5093264;28;20453;-73
2022/10/12 04:46:26;;;;;;;6.88;5.65;;;6.40;92.60;;;;;;5105098;28;20427;-71
2022/10/12 04:48:55;;;;;;;10.15;5.70;;;6.40;92.50;;;;;;5107194;28;20534;-71
2022/10/12 04:51:21;;;;;;;7.40;5.83;;;6.40;92.50;;;;;;5104438;28;20427;-71
2022/10/12 04:53:48;;;;;;;8.32;5.78;;;6.40;92.40;;;;;;5115500;27;20759;-69
2022/10/12 04:56:15;;;;;;;8.23;5.80;;;6.40;93.00;;;;;;5126943;27;20494;-71
2022/10/12 04:58:42;;;;;;;7.22;5.53;;;6.40;92.60;;;;;;5107095;27;20908;-73
2022/10/12 05:01:09;;;;;;;6.43;5.00;;;6.40;92.60;;;;;;5096955;28;20793;-73
2022/10/12 05:03:35;;;;;;;9.20;5.50;;;6.40;92.50;;;;;;5097393;28;20414;-69
2022/10/12 05:06:04;;;;;;;7.68;5.45;;;6.40;92.40;;;;;;5116267;28;20432;-73
2022/10/12 05:08:31;;;;;;;6.20;5.40;;;6.40;92.30;;;;;;5108086;27;20432;-71
2022/10/12 05:10:58;;;;;;;6.63;5.70;;;6.40;92.20;;;;;;5102296;28;20420;-70
2022/10/12 05:13:25;;;;;;;9.15;6.20;;;6.40;92.10;;;;;;5106010;27;20939;-71
2022/10/12 05:15:52;;;;;;;7.07;5.50;;;6.40;92.20;;;;;;5096220;28;20424;-71
2022/10/12 05:18:19;;;;;;;7.65;5.20;;;6.40;92.30;;;;;;5086706;28;20430;-72
2022/10/12 05:20:45;;;;;;;7.07;5.80;;;6.40;92.10;;;;;;5104945;28;20416;-69
2022/10/12 05:23:14;;;;;;;7.20;5.85;;;6.40;92.20;;;;;;5099255;28;20907;-72
2022/10/12 05:25:41;;;;;;;5.70;5.18;;;6.40;92.10;;;;;;5098036;28;20444;-71
2022/10/12 05:28:07;;;;;;;9.30;5.75;;;6.40;92.10;;;;;;5101632;28;20417;-71
2022/10/12 05:30:34;;;;;;;6.90;5.30;;;6.40;92.00;;;;;;5093256;28;20433;-70
2022/10/12 05:33:01;;;;;;;8.07;5.68;;;6.30;92.00;;;;;;5103416;28;20951;-70
2022/10/12 05:35:28;;;;;;;6.75;5.60;;;6.20;91.90;;;;;;5103173;28;20432;-70
2022/10/12 05:37:55;;;;;;;7.15;5.25;;;6.20;92.00;;;;;;5093947;28;20932;-71
2022/10/12 05:40:23;;;;;;;8.10;6.07;;;6.20;92.00;;;;;;5101097;28;20428;-70
2022/10/12 05:42:50;;;;;;;8.97;6.07;;;6.20;92.10;;;;;;5106013;28;20418;-71
2022/10/12 05:45:17;;;;;;;9.05;6.15;;;6.20;92.10;;;;;;5103625;28;20416;-71
2022/10/12 05:47:43;;;;;;;8.52;5.90;;;6.20;92.20;;;;;;5122808;28;20414;-70
2022/10/12 05:50:10;;;;;;;9.80;6.20;;;6.10;92.20;;;;;;5105713;28;20424;-70
2022/10/12 05:52:37;;;;;;;8.13;6.20;;;6.10;92.10;;;;;;5114093;28;20436;-71
2022/10/12 05:55:04;;;;;;;7.30;6.18;;;6.10;92.20;;;;;;5116904;28;20453;-70
2022/10/12 05:57:33;;;;;;;7.90;5.75;;;6.10;92.60;;;;;;5117967;27;20430;-71
2022/10/12 06:00:00;;;;;;;8.90;5.68;;;6.10;92.20;;;;;;5104687;28;20444;-72
2022/10/12 06:02:27;;;;;;;8.15;6.00;;;6.10;92.10;;;;;;5098837;28;21021;-71
2022/10/12 06:04:54;;;;;;;7.38;5.90;;;6.20;92.10;;;;;;5103211;28;20421;-72
2022/10/12 06:07:20;;;;;;;8.63;5.80;;;6.10;92.00;;;;;;5113389;28;20430;-71
2022/10/12 06:09:48;;;;;;;9.85;5.97;;;6.20;92.20;;;;;;5114736;28;20533;-72
2022/10/12 06:12:15;;;;;;;8.45;5.90;;;6.20;92.40;;;;;;5101890;28;20429;-73
2022/10/12 06:14:43;;;;;;;6.72;5.57;;;6.20;92.30;;;;;;5122873;28;20907;-72
2022/10/12 06:17:10;;;;;;;9.90;5.80;;;6.30;92.10;;;;;;5122153;28;20426;-73
2022/10/12 06:19:37;;;;;;;8.70;6.00;;;6.20;92.00;;;;;;5115201;28;20424;-72
2022/10/12 06:22:04;;;;;;;8.45;5.72;;;6.20;92.10;;;;;;5122005;28;21208;-73
2022/10/12 06:24:31;;;;;;;7.20;6.10;;;6.20;92.30;;;;;;5124789;27;20426;-72
2022/10/12 06:26:58;;;;;;;6.15;5.55;;;6.20;92.40;;;;;;5119085;28;20438;-73
2022/10/12 06:29:25;;;;;;;7.22;6.00;;;6.20;92.50;;;;;;5116692;28;20412;-72
2022/10/12 06:31:54;;;;;;;6.90;5.50;;;6.20;92.30;;;;;;5101809;22;20467;-68
2022/10/12 06:34:20;;;;;;;9.50;6.00;;;6.20;92.30;;;;;;5053598;28;20417;-68
2022/10/12 06:36:48;;;;;;;7.32;5.93;;;6.20;92.20;;;;;;5074818;28;20414;-68
2022/10/12 06:39:16;;;;;;;8.70;5.97;;;6.10;92.00;;;;;;5062035;22;20498;-70
2022/10/12 06:41:42;;;;;;;5.60;5.10;;;6.10;92.00;;;;;;5028509;28;20408;-68
2022/10/12 06:44:09;;;;;;;7.60;5.72;;;6.10;92.20;;;;;;5022595;28;20529;-70
2022/10/12 06:46:36;;;;;;;8.13;5.85;;;6.10;92.10;;;;;;5023298;28;20425;-72
2022/10/12 06:49:04;;;;;;;8.70;5.70;;;6.20;92.10;;;;;;5024252;28;20533;-69
2022/10/12 06:51:31;;;;;;;7.90;5.40;;;6.20;91.90;;;;;;5023470;28;20447;-68
2022/10/12 06:53:58;;;;;;;8.05;5.82;;;6.30;91.80;;;;;;5013175;28;20424;-67
2022/10/12 06:56:25;;;;;;;7.95;5.72;;;6.20;91.50;;;;;;5022651;28;20446;-71
2022/10/12 06:58:54;;;;;;;9.93;6.40;;;6.30;91.50;;;;;;5027386;28;20885;-68
2022/10/12 07:01:21;;;;;;;9.20;5.70;;;6.30;91.40;;;;;;5019917;28;20490;-68
2022/10/12 07:03:48;;;;;;;8.75;6.30;;;6.30;91.30;;;;;;5007902;28;20422;-68
2022/10/12 07:06:16;;;;;;;6.65;5.55;;;6.40;91.30;;;;;;5016377;28;20425;-71
2022/10/12 07:08:43;;;;;;;8.93;6.18;;;6.50;91.30;;;;;;5022145;28;20542;-70
2022/10/12 07:11:13;;;;;;;7.90;5.50;;;6.60;91.70;;;;;;5016094;28;20430;-68
2022/10/12 07:13:40;;;;;;;9.63;5.70;;;6.60;90.80;;;;;;5017540;28;20444;-68
2022/10/12 07:16:08;;;;;;;8.55;5.45;;;6.70;90.60;;;;;;5020191;28;22271;-69
2022/10/12 07:18:34;;;;;;;8.40;5.40;;;6.80;90.40;;;;;;5024408;28;20476;-69
2022/10/12 07:21:02;;;;;;;5.90;4.80;;;6.90;90.20;;;;;;5014523;28;21937;-68
2022/10/12 07:23:30;;;;;;;9.95;5.97;;;7.00;90.00;;;;;;5032344;28;20443;-69
2022/10/12 07:25:57;;;;;;;8.20;5.20;;;7.10;89.30;;;;;;5017825;28;20546;-70
2022/10/12 07:28:24;;;;;;;8.32;5.65;;;7.20;89.10;;;;;;5017280;28;20419;-68
2022/10/12 07:30:51;;;;;;;6.75;5.65;;;7.30;88.40;;;;;;5011968;28;20749;-69
2022/10/12 07:33:18;;;;;;;6.43;5.40;;;7.50;88.70;;;;;;5004669;28;20421;-72
2022/10/12 07:35:54;;;;;;;8.30;6.03;;;7.80;87.40;;;;;;5030096;28;20793;-67
2022/10/12 07:38:20;;;;;;;9.15;5.88;;;7.90;86.50;;;;;;5019192;28;20426;-69
2022/10/12 07:40:49;;;;;;;6.88;5.15;;;8.00;84.60;;;;;;5021981;28;20427;-71
2022/10/12 07:43:15;;;;;;;9.45;5.60;;;8.20;84.70;;;;;;5018823;28;20438;-70
2022/10/12 07:45:43;;;;;;;6.60;5.63;;;8.30;83.60;;;;;;5025620;28;20464;-68
2022/10/12 07:48:09;;;;;;;6.10;5.07;;;8.50;83.60;;;;;;5031264;28;20983;-71
2022/10/12 07:50:36;;;;;;;8.63;5.40;;;8.70;82.80;;;;;;5023949;28;20427;-68
2022/10/12 07:53:03;;;;;;;8.38;5.45;;;9.00;82.50;;;;;;5028954;28;20430;-68
2022/10/12 07:55:30;;;;;;;8.40;6.13;;;9.20;80.40;;;;;;5022218;28;20435;-68
2022/10/12 07:57:58;;;;;;;8.45;5.10;;;9.50;79.50;;;;;;5018465;28;20787;-68
2022/10/12 08:00:26;;;;;;;7.47;4.93;;;9.60;77.90;;;;;;5015955;28;20431;-68
2022/10/12 08:02:52;;;;;;;5.20;4.30;;;9.70;76.50;;;;;;5016862;28;20426;-69
2022/10/12 08:05:21;;;;;;;6.47;4.40;;;9.60;76.10;;;;;;5019774;28;20423;-69
2022/10/12 08:07:48;;;;;;;8.52;4.68;;;9.80;76.60;;;;;;5035206;28;20438;-68
2022/10/12 08:10:15;;;;;;;8.50;4.38;;;9.90;77.30;;;;;;5032111;28;20461;-70
2022/10/12 08:12:42;;;;;;;6.43;4.22;;;10.30;75.50;;;;;;5020552;28;20461;-68
2022/10/12 08:15:11;;;;;;;9.27;4.60;;;10.50;74.50;;;;;;5004539;28;20427;-68
2022/10/12 08:17:38;;;;;;;8.73;5.20;;;10.70;73.30;;;;;;5031146;28;20416;-72
2022/10/12 08:20:07;;;;;;;7.77;4.93;;;10.80;72.80;;;;;;5011023;28;20435;-68
2022/10/12 08:22:33;;;;;;;8.48;4.97;;;11.00;72.20;;;;;;5018571;28;20491;-68
2022/10/12 08:25:00;;;;;;;7.60;4.70;;;11.10;71.30;;;;;;5017913;28;20503;-71
2022/10/12 08:27:30;;;;;;;9.02;4.75;;;11.30;71.20;;;;;;5019539;28;20530;-68
2022/10/12 08:29:57;;;;;;;7.60;4.68;;;11.50;70.90;;;;;;5015477;28;20417;-70
2022/10/12 08:32:25;;;;;;;9.00;5.13;;;11.60;70.10;;;;;;5017829;28;20799;-70
2022/10/12 08:34:52;;;;;;;8.73;5.00;;;11.70;70.20;;;;;;5017728;28;20461;-69
2022/10/12 08:37:18;;;;;;;8.13;4.90;;;12.00;69.20;;;;;;5018636;28;20439;-71
2022/10/12 08:39:45;;;;;;;7.40;4.63;;;12.10;67.10;;;;;;5020665;28;20422;-68
2022/10/12 08:42:23;;;;;;;8.48;4.95;;;12.00;66.60;;;;;;5016720;28;20469;-71
2022/10/12 08:45:06;;;;;;;7.72;4.80;;;11.80;67.10;;;;;;5007466;28;20771;-71
2022/10/12 08:47:40;;;;;;;7.90;4.90;;;11.60;68.00;;;;;;5021179;28;20415;-74
2022/10/12 08:50:14;;;;;;;6.47;4.50;;;11.60;68.80;;;;;;5026557;28;20497;-74
2022/10/12 08:52:47;;;;;;;7.82;5.05;;;11.70;68.60;;;;;;5018305;28;20426;-72
2022/10/12 08:55:25;;;;;;;6.70;4.70;;;11.80;68.20;;;;;;5017635;28;20885;-70
2022/10/12 08:57:52;;;;;;;7.10;5.03;;;11.90;68.20;;;;;;5009304;28;20431;-67
2022/10/12 09:00:19;;;;;;;6.68;5.00;;;11.90;67.70;;;;;;5017412;28;20420;-70
2022/10/12 09:03:06;;;;;;;7.55;4.85;;;11.90;68.80;;;;;;5012173;28;20419;-70
2022/10/12 09:05:38;;;;;;;6.45;5.00;;;12.00;68.00;;;;;;5001215;28;20438;-70
2022/10/12 09:08:11;;;;;;;7.20;5.20;;;11.90;68.40;;;;;;5004834;28;20426;-70
2022/10/12 09:10:45;;;;;;;7.50;6.00;;;11.90;68.50;;;;;;5013779;28;20519;-71
2022/10/12 09:13:25;;;;;;;6.70;4.80;;;11.90;68.70;;;;;;5009542;28;20858;-70
2022/10/12 09:15:56;;;;;;;6.20;5.10;;;11.90;68.40;;;;;;5014861;28;20445;-72
2022/10/12 09:18:35;;;;;;;6.78;4.80;;;11.80;68.90;;;;;;5022608;28;20419;-71
2022/10/12 09:21:05;;;;;;;6.30;4.80;;;11.80;69.70;;;;;;5003512;28;20464;-69
2022/10/12 09:23:35;;;;;;;8.70;6.05;;;11.90;70.00;;;;;;5020586;28;20427;-69
2022/10/12 09:26:09;;;;;;;6.50;4.80;;;11.90;69.30;;;;;;5013714;28;20974;-72
2022/10/12 09:28:40;;;;;;;7.78;5.47;;;12.10;68.70;;;;;;5015731;28;20447;-71
2022/10/12 09:31:22;;;;;;;7.65;5.78;;;12.20;70.00;;;;;;5024703;28;20842;-73
2022/10/12 09:33:54;;;;;;;6.65;5.15;;;12.40;69.20;;;;;;5016427;28;20951;-69
2022/10/12 09:36:23;;;;;;;7.05;5.30;;;12.80;67.80;;;;;;5012162;28;20439;-68
2022/10/12 09:38:50;;;;;;;7.32;5.57;;;13.10;66.60;;;;;;5025170;28;20453;-72
2022/10/12 09:41:21;;;;;;;8.13;5.30;;;13.20;65.80;;;;;;5027284;28;20442;-68
2022/10/12 09:43:51;;;;;;;7.38;5.35;;;13.30;66.00;;;;;;5020779;28;20434;-72
2022/10/12 09:46:26;;;;;;;5.53;4.68;;;13.60;65.50;;;;;;5012601;28;20462;-69
2022/10/12 09:48:59;;;;;;;6.35;5.10;;;14.20;63.20;;;;;;5019414;28;20444;-67
2022/10/12 09:51:27;;;;;;;6.93;5.05;;;14.50;62.40;;;;;;5038011;28;20439;-71
2022/10/12 09:53:57;;;;;;;6.40;5.38;;;14.50;61.90;;;;;;5014007;28;20429;-72
2022/10/12 09:56:28;;;;;;;5.65;4.93;;;14.70;61.80;;;;;;5021274;28;20442;-71
2022/10/12 09:59:00;;;;;;;7.13;5.20;;;14.70;61.40;;;;;;5022497;28;20443;-67
2022/10/12 10:01:29;;;;;;;7.27;5.40;;;14.80;60.50;;;;;;5006775;28;20412;-68
2022/10/12 10:04:16;;;;;;;8.70;5.18;;;14.90;60.00;;;;;;5020573;28;20921;-69
2022/10/12 10:06:45;;;;;;;8.07;5.35;;;15.10;60.50;;;;;;5017106;28;20436;-69
2022/10/12 10:09:30;;;;;;;7.17;5.60;;;15.00;59.60;;;;;;5017230;28;20930;-68
2022/10/12 10:11:57;;;;;;;6.82;5.63;;;14.90;60.60;;;;;;5003781;28;20491;-69
2022/10/12 10:14:25;;;;;;;7.75;5.60;;;14.80;60.70;;;;;;5004285;28;20425;-68
2022/10/12 10:16:53;;;;;;;6.82;5.80;;;14.70;60.30;;;;;;5017353;28;20629;-68
2022/10/12 10:19:25;;;;;;;5.25;4.75;;;14.60;61.50;;;;;;5016376;28;20445;-67
2022/10/12 10:21:54;;;;;;;7.18;5.40;;;14.70;61.40;;;;;;5020569;28;20881;-69
2022/10/12 10:24:28;;;;;;;5.43;4.93;;;14.90;60.50;;;;;;5012764;28;20479;-70
2022/10/12 10:26:57;;;;;;;8.13;5.63;;;15.00;61.00;;;;;;5019573;28;20934;-69
2022/10/12 10:29:33;;;;;;;8.20;5.80;;;15.10;60.50;;;;;;5024076;28;20427;-68
2022/10/12 10:32:23;;;;;;;7.10;5.55;;;15.30;59.80;;;;;;5018809;28;20885;-68
2022/10/12 10:35:02;;;;;;;6.60;5.05;;;15.30;60.40;;;;;;5020491;28;20670;-69
2022/10/12 10:37:31;;;;;;;6.57;5.55;;;15.40;60.30;;;;;;5017335;28;20425;-68
2022/10/12 10:39:59;;;;;;;7.03;5.40;;;15.40;59.60;;;;;;5023519;28;20870;-68
2022/10/12 10:42:30;;;;;;;6.78;5.00;;;15.40;60.10;;;;;;5018018;28;20767;-70
2022/10/12 10:44:59;;;;;;;7.10;5.95;;;15.50;59.40;;;;;;5016372;28;20517;-68
2022/10/12 10:47:27;;;;;;;7.00;5.60;;;15.60;59.00;;;;;;5013499;28;20437;-69
2022/10/12 10:49:57;;;;;;;7.32;5.72;;;15.90;58.20;;;;;;5005327;28;20900;-70
2022/10/12 10:52:28;;;;;;;8.82;5.80;;;16.10;58.30;;;;;;5003718;28;20507;-70
2022/10/12 10:55:18;;;;;;;6.85;5.00;;;16.30;57.60;;;;;;5008222;28;20477;-69
2022/10/12 10:57:52;;;;;;;7.57;5.20;;;16.60;57.30;;;;;;5014445;28;20490;-68
2022/10/12 11:00:21;;;;;;;7.55;5.50;;;16.70;56.10;;;;;;5003684;28;20865;-68
2022/10/12 11:02:52;;;;;;;6.95;5.28;;;16.90;55.90;;;;;;5003336;28;20952;-68
2022/10/12 11:05:24;;;;;;;7.60;5.78;;;17.20;56.50;;;;;;5016542;28;20430;-69
2022/10/12 11:07:54;;;;;;;7.45;5.38;;;17.50;54.80;;;;;;5023390;28;20441;-68
2022/10/12 11:10:27;;;;;;;6.30;5.20;;;17.50;53.90;;;;;;5015970;28;20431;-68
2022/10/12 11:13:00;;;;;;;6.80;5.10;;;17.50;53.60;;;;;;5021058;28;20937;-72
2022/10/12 11:15:34;;;;;;;8.73;5.07;;;17.60;53.20;;;;;;5035883;28;20428;-69
2022/10/12 11:18:08;;;;;;;5.80;5.20;;;17.70;54.50;;;;;;5010670;28;20415;-72
2022/10/12 11:20:45;;;;;;;7.32;5.45;;;17.80;53.80;;;;;;5008583;28;20420;-71
2022/10/12 11:23:24;;;;;;;6.93;4.93;;;17.80;53.50;;;;;;5020514;28;20433;-73
2022/10/12 11:26:12;;;;;;;7.95;5.65;;;17.60;54.60;;;;;;5019161;28;20435;-72
2022/10/12 11:28:40;;;;;;;9.98;5.22;;;17.40;53.70;;;;;;5012818;28;20474;-71
2022/10/12 11:31:17;;;;;;;7.37;5.07;;;17.40;54.50;;;;;;5015557;28;20586;-70
2022/10/12 11:33:45;;;;;;;7.38;4.90;;;17.30;53.50;;;;;;5003102;28;20425;-72
2022/10/12 11:36:14;;;;;;;6.72;5.20;;;17.30;54.80;;;;;;5017919;28;20439;-72
2022/10/12 11:38:46;;;;;;;7.93;5.18;;;17.10;54.40;;;;;;5013992;28;20437;-70
2022/10/12 11:41:17;;;;;;;6.28;4.50;;;17.10;54.70;;;;;;5015849;28;20474;-70
2022/10/12 11:43:49;;;;;;;10.05;5.03;;;17.00;54.60;;;;;;5020853;28;20423;-69
2022/10/12 11:46:21;;;;;;;8.00;4.90;;;16.90;54.60;;;;;;5018993;28;21055;-69
2022/10/12 11:48:53;;;;;;;7.25;4.70;;;16.90;55.70;;;;;;5020839;28;20557;-71
2022/10/12 11:51:20;;;;;;;6.40;4.72;;;16.80;54.70;;;;;;5021910;28;20425;-70
2022/10/12 11:53:58;;;;;;;7.50;4.80;;;16.70;56.30;;;;;;5025300;28;20423;-70
2022/10/12 11:56:31;;;;;;;6.15;4.95;;;16.60;56.40;;;;;;5039725;28;20414;-70
2022/10/12 11:59:02;;;;;;;6.90;5.30;;;16.50;56.30;;;;;;5023710;28;20411;-68
2022/10/12 12:01:43;;;;;;;7.93;5.17;;;16.50;56.10;;;;;;5014280;28;20507;-71
2022/10/12 12:04:16;;;;;;;8.10;5.15;;;16.50;57.10;;;;;;5008560;28;20439;-69
2022/10/12 12:06:55;;;;;;;7.57;5.60;;;16.60;57.60;;;;;;5019964;28;21290;-70
2022/10/12 12:09:33;;;;;;;8.88;5.38;;;16.80;57.10;;;;;;5013967;28;20947;-69
2022/10/12 12:12:24;;;;;;;7.55;5.47;;;16.90;56.90;;;;;;5035221;28;20453;-68
2022/10/12 12:15:21;;;;;;;6.83;5.33;;;17.00;57.20;;;;;;5001965;28;20437;-72
2022/10/12 12:18:12;;;;;;;7.30;4.95;;;17.10;57.10;;;;;;5024382;28;20558;-72
2022/10/12 12:21:02;;;;;;;8.20;5.20;;;17.40;56.50;;;;;;5016590;28;20429;-71
2022/10/12 12:23:37;;;;;;;6.17;4.97;;;17.70;55.30;;;;;;5002744;28;20431;-70
2022/10/12 12:26:13;;;;;;;8.35;5.53;;;17.80;55.90;;;;;;5017811;28;20425;-69
2022/10/12 12:28:42;;;;;;;6.70;4.50;;;17.80;55.00;;;;;;5015222;28;20442;-70
2022/10/12 12:31:13;;;;;;;6.95;5.10;;;17.90;54.90;;;;;;5029390;28;20421;-71
2022/10/12 12:33:44;;;;;;;6.43;4.70;;;18.10;54.30;;;;;;5008417;28;20786;-70
2022/10/12 12:36:14;;;;;;;8.25;4.88;;;18.00;54.50;;;;;;5022225;28;20466;-70
2022/10/12 12:38:47;;;;;;;6.50;4.70;;;17.90;55.30;;;;;;5014596;28;20434;-71
2022/10/12 12:41:17;;;;;;;8.05;4.95;;;18.00;54.50;;;;;;5002645;28;20424;-71
2022/10/12 12:44:02;;;;;;;6.55;4.40;;;18.10;54.10;;;;;;5017281;28;20434;-71
2022/10/12 12:47:07;;;;;;;5.20;4.47;;;18.40;54.10;;;;;;5020063;28;20476;-71
2022/10/12 12:49:44;;;;;;;7.78;4.60;;;18.80;52.70;;;;;;5015830;28;20428;-73
2022/10/12 12:52:17;;;;;;;5.22;4.10;;;18.80;53.70;;;;;;5000543;28;20455;-70
2022/10/12 12:55:12;;;;;;;7.30;4.40;;;18.70;52.30;;;;;;5027772;28;20442;-72
2022/10/12 12:57:56;;;;;;;6.00;4.72;;;18.60;54.00;;;;;;5017182;28;20444;-71
2022/10/12 13:00:24;;;;;;;9.80;5.00;;;18.50;54.10;;;;;;5013933;28;20423;-71
2022/10/12 13:03:26;;;;;;;7.03;4.60;;;18.40;54.40;;;;;;5011390;28;20443;-69
2022/10/12 13:06:29;;;;;;;5.20;4.32;;;18.60;53.70;;;;;;5015766;28;20422;-72
2022/10/12 13:09:31;;;;;;;6.28;4.30;;;19.50;53.20;;;;;;5007456;28;20655;-74
2022/10/12 13:12:21;;;;;;;5.55;3.90;;;20.10;50.70;;;;;;4978662;28;20457;-70